createdAt,value
2019-03-28T00:01:09.325Z,3.39
2019-03-28T00:03:38.571Z,3.29
2019-03-28T00:06:07.724Z,3.40
2019-03-28T00:08:36.965Z,3.45
2019-03-28T00:11:06.117Z,3.48
2019-03-28T00:13:35.309Z,3.53
2019-03-28T00:16:04.577Z,3.43
2019-03-28T00:18:33.757Z,3.62
2019-03-28T00:21:02.939Z,3.48
2019-03-28T00:23:49.698Z,3.47
2019-03-28T00:26:29.482Z,3.39
2019-03-28T00:28:49.803Z,3.05
2019-03-28T00:31:18.946Z,2.90
2019-03-28T00:33:48.120Z,2.91
2019-03-28T00:36:17.299Z,3.05
2019-03-28T00:38:46.510Z,3.14
2019-03-28T00:41:15.675Z,3.05
2019-03-28T00:43:44.852Z,3.03
2019-03-28T00:46:14.104Z,3.22
2019-03-28T00:48:43.312Z,3.09
2019-03-28T00:51:12.472Z,2.98
2019-03-28T00:53:41.632Z,2.85
2019-03-28T00:56:10.807Z,2.82
2019-03-28T00:58:39.956Z,2.97
2019-03-28T01:01:09.135Z,3.03
2019-03-28T01:03:38.324Z,3.02
2019-03-28T01:06:07.524Z,3.03
2019-03-28T01:08:36.751Z,2.97
2019-03-28T01:11:06.026Z,2.99
2019-03-28T01:13:35.180Z,2.97
2019-03-28T01:16:04.352Z,2.82
2019-03-28T01:18:33.523Z,2.73
2019-03-28T01:21:02.701Z,2.46
2019-03-28T01:23:31.881Z,2.38
2019-03-28T01:26:01.059Z,2.63
2019-03-28T01:28:30.227Z,2.61
2019-03-28T01:30:59.594Z,2.61
2019-03-28T01:33:28.754Z,2.68
2019-03-28T01:35:57.986Z,2.62
2019-03-28T01:38:27.179Z,2.63
2019-03-28T01:40:56.347Z,2.53
2019-03-28T01:43:25.512Z,2.49
2019-03-28T01:45:54.675Z,2.25
2019-03-28T01:48:23.902Z,2.17
2019-03-28T01:50:53.057Z,2.20
2019-03-28T01:53:22.252Z,2.11
2019-03-28T01:55:51.418Z,2.15
2019-03-28T01:58:21.210Z,2.26
2019-03-28T02:00:50.461Z,2.28
2019-03-28T02:03:19.656Z,2.17
2019-03-28T02:05:48.957Z,2.03
2019-03-28T02:08:18.222Z,1.94
2019-03-28T02:10:47.303Z,1.95
2019-03-28T02:13:16.475Z,1.87
2019-03-28T02:15:45.747Z,1.78
2019-03-28T02:18:14.977Z,1.84
2019-03-28T02:20:44.143Z,2.03
2019-03-28T02:23:13.393Z,1.94
2019-03-28T02:25:43.413Z,2.06
2019-03-28T02:28:12.738Z,2.10
2019-03-28T02:30:41.905Z,2.12
2019-03-28T02:33:11.097Z,2.06
2019-03-28T02:35:40.254Z,2.05
2019-03-28T02:38:09.423Z,1.89
2019-03-28T02:40:38.582Z,1.84
2019-03-28T02:43:07.846Z,1.64
2019-03-28T02:45:37.013Z,1.57
2019-03-28T02:48:06.287Z,1.55
2019-03-28T02:50:35.462Z,1.64
2019-03-28T02:53:04.729Z,1.75
2019-03-28T02:55:33.879Z,1.55
2019-03-28T02:58:03.069Z,1.46
2019-03-28T03:00:32.195Z,1.48
2019-03-28T03:03:01.380Z,1.46
2019-03-28T03:05:30.610Z,1.38
2019-03-28T03:07:59.786Z,1.36
2019-03-28T03:10:28.956Z,1.50
2019-03-28T03:12:58.226Z,1.65
2019-03-28T03:15:27.399Z,1.63
2019-03-28T03:17:56.640Z,1.64
2019-03-28T03:20:25.812Z,1.59
2019-03-28T03:22:54.970Z,1.60
2019-03-28T03:25:24.146Z,1.43
2019-03-28T03:27:58.498Z,1.35
2019-03-28T03:30:24.218Z,1.37
2019-03-28T03:32:53.383Z,1.46
2019-03-28T03:35:22.584Z,1.44
2019-03-28T03:37:51.760Z,1.36
2019-03-28T03:40:20.945Z,1.48
2019-03-28T03:42:50.106Z,1.51
2019-03-28T03:45:19.331Z,1.59
2019-03-28T03:47:48.523Z,1.64
2019-03-28T03:50:27.253Z,1.65
2019-03-28T03:52:56.450Z,1.68
2019-03-28T03:55:25.780Z,1.56
2019-03-28T03:57:55.082Z,1.55
2019-03-28T04:00:32.375Z,1.52
2019-03-28T04:03:03.010Z,1.46
2019-03-28T04:05:32.678Z,1.50
2019-03-28T04:08:01.936Z,1.46
2019-03-28T04:10:31.306Z,1.54
2019-03-28T04:13:00.535Z,1.50
2019-03-28T04:15:29.835Z,1.47
2019-03-28T04:17:59.086Z,1.42
2019-03-28T04:20:28.327Z,1.43
2019-03-28T04:22:57.565Z,1.47
2019-03-28T04:25:26.740Z,1.44
2019-03-28T04:27:56.006Z,1.45
2019-03-28T04:30:25.273Z,1.65
2019-03-28T04:32:54.439Z,1.71
2019-03-28T04:35:23.622Z,1.65
2019-03-28T04:37:52.792Z,1.56
2019-03-28T04:40:21.969Z,1.60
2019-03-28T04:42:51.141Z,1.56
2019-03-28T04:45:20.392Z,1.55
2019-03-28T04:47:49.594Z,1.52
2019-03-28T04:50:18.808Z,1.50
2019-03-28T04:52:47.987Z,1.47
2019-03-28T04:55:17.179Z,1.50
2019-03-28T04:57:46.360Z,1.57
2019-03-28T05:00:15.898Z,1.70
2019-03-28T05:02:46.178Z,1.79
2019-03-28T05:05:15.783Z,1.74
2019-03-28T05:07:45.177Z,1.82
2019-03-28T05:10:15.322Z,1.74
2019-03-28T05:12:44.768Z,1.76
2019-03-28T05:15:14.015Z,1.78
2019-03-28T05:17:43.187Z,1.81
2019-03-28T05:20:13.436Z,1.83
2019-03-28T05:22:42.789Z,1.86
2019-03-28T05:25:12.030Z,1.90
2019-03-28T05:27:41.229Z,1.95
2019-03-28T05:30:10.770Z,2.08
2019-03-28T05:32:39.929Z,2.05
2019-03-28T05:35:09.209Z,2.14
2019-03-28T05:37:38.406Z,2.20
2019-03-28T05:40:07.799Z,2.16
2019-03-28T05:42:37.064Z,2.16
2019-03-28T05:45:06.715Z,2.11
2019-03-28T05:47:35.987Z,2.24
2019-03-28T05:50:05.960Z,2.30
2019-03-28T05:52:35.129Z,2.54
2019-03-28T05:55:05.511Z,2.48
2019-03-28T05:57:34.784Z,2.50
2019-03-28T06:00:04.502Z,2.61
2019-03-28T06:02:52.040Z,2.67
2019-03-28T06:05:21.350Z,2.77
2019-03-28T06:07:50.579Z,2.91
2019-03-28T06:10:19.737Z,3.09
2019-03-28T06:12:48.948Z,3.24
2019-03-28T06:15:18.193Z,3.25
2019-03-28T06:17:47.376Z,3.22
2019-03-28T06:20:17.842Z,3.37
2019-03-28T06:22:47.089Z,3.59
2019-03-28T06:25:16.296Z,3.74
2019-03-28T06:27:45.555Z,3.76
2019-03-28T06:30:14.796Z,3.84
2019-03-28T06:32:44.092Z,3.94
2019-03-28T06:35:13.360Z,4.04
2019-03-28T06:37:42.559Z,4.07
2019-03-28T06:40:12.207Z,4.12
2019-03-28T06:42:41.392Z,4.30
2019-03-28T06:45:10.936Z,4.45
2019-03-28T06:47:40.255Z,4.58
2019-03-28T06:50:10.201Z,4.70
2019-03-28T06:52:39.514Z,4.93
2019-03-28T06:55:08.756Z,5.18
2019-03-28T06:57:37.927Z,5.37
2019-03-28T07:00:08.942Z,5.48
2019-03-28T07:02:38.211Z,5.70
2019-03-28T07:05:07.923Z,5.80
2019-03-28T07:07:37.118Z,5.89
2019-03-28T07:10:06.572Z,5.95
2019-03-28T07:12:35.757Z,5.92
2019-03-28T07:15:05.761Z,6.01
2019-03-28T07:17:34.941Z,6.02
2019-03-28T07:20:04.238Z,6.20
2019-03-28T07:22:33.403Z,6.35
2019-03-28T07:25:02.647Z,6.43
2019-03-28T07:27:31.823Z,6.56
2019-03-28T07:30:01.016Z,6.56
2019-03-28T07:32:30.197Z,6.61
2019-03-28T07:34:59.418Z,6.74
2019-03-28T07:37:28.637Z,6.78
2019-03-28T07:39:57.818Z,6.89
2019-03-28T07:42:27.002Z,7.08
2019-03-28T07:44:56.215Z,7.06
2019-03-28T07:47:25.389Z,7.11
2019-03-28T07:49:54.616Z,7.21
2019-03-28T07:52:23.820Z,7.34
2019-03-28T07:54:53.122Z,7.45
2019-03-28T07:57:22.302Z,7.53
2019-03-28T08:00:03.515Z,7.70
2019-03-28T08:02:22.377Z,7.70
2019-03-28T08:04:51.641Z,7.76
2019-03-28T08:07:20.994Z,7.77
2019-03-28T08:09:50.233Z,7.84
2019-03-28T08:12:23.063Z,8.00
2019-03-28T08:14:50.363Z,8.07
2019-03-28T08:17:19.551Z,8.23
2019-03-28T08:19:48.742Z,8.25
2019-03-28T08:22:17.979Z,8.36
2019-03-28T08:24:47.174Z,8.48
2019-03-28T08:27:16.416Z,8.50
2019-03-28T08:29:45.607Z,8.62
2019-03-28T08:32:17.736Z,8.79
2019-03-28T08:34:46.990Z,8.94
2019-03-28T08:37:16.317Z,9.08
2019-03-28T08:39:45.672Z,9.05
2019-03-28T08:42:14.845Z,9.04
2019-03-28T08:44:44.069Z,9.22
2019-03-28T08:47:13.332Z,9.22
2019-03-28T08:49:42.605Z,9.29
2019-03-28T08:52:12.087Z,9.30
2019-03-28T08:54:41.423Z,9.30
2019-03-28T08:57:10.576Z,9.28
2019-03-28T08:59:39.741Z,9.33
2019-03-28T09:02:09.021Z,9.42
2019-03-28T09:04:38.166Z,9.50
2019-03-28T09:07:07.334Z,9.63
2019-03-28T09:09:36.504Z,9.53
2019-03-28T09:12:05.753Z,9.48
2019-03-28T09:14:34.909Z,9.55
2019-03-28T09:17:04.104Z,9.70
2019-03-28T09:19:33.267Z,9.72
2019-03-28T09:22:02.445Z,9.77
2019-03-28T09:24:31.631Z,9.86
2019-03-28T09:27:00.810Z,9.89
2019-03-28T09:29:30.113Z,9.87
2019-03-28T09:31:59.423Z,9.96
2019-03-28T09:34:28.617Z,10.00
2019-03-28T09:36:57.781Z,9.92
2019-03-28T09:39:26.964Z,10.20
2019-03-28T09:41:56.182Z,10.31
2019-03-28T09:44:25.346Z,10.50
2019-03-28T09:46:54.524Z,10.58
2019-03-28T09:49:23.694Z,10.68
2019-03-28T09:51:52.969Z,10.84
2019-03-28T09:54:22.155Z,10.76
2019-03-28T09:56:51.422Z,10.92
2019-03-28T09:59:20.642Z,11.03
2019-03-28T10:01:49.859Z,11.10
2019-03-28T10:04:19.050Z,11.24
2019-03-28T10:06:48.301Z,11.38
2019-03-28T10:09:17.480Z,11.44
2019-03-28T10:11:46.754Z,11.54
2019-03-28T10:14:15.945Z,11.70
2019-03-28T10:16:45.128Z,11.82
2019-03-28T10:19:14.364Z,11.93
2019-03-28T10:21:43.531Z,11.98
2019-03-28T10:24:12.782Z,12.11
2019-03-28T10:26:42.027Z,12.23
2019-03-28T10:29:11.212Z,12.33
2019-03-28T10:31:41.295Z,12.37
2019-03-28T10:34:10.519Z,12.41
2019-03-28T10:36:39.694Z,12.40
2019-03-28T10:39:09.715Z,12.45
2019-03-28T10:41:40.061Z,12.54
2019-03-28T10:44:09.532Z,12.70
2019-03-28T10:46:38.715Z,12.73
2019-03-28T10:49:07.894Z,12.80
2019-03-28T10:51:37.098Z,12.86
2019-03-28T10:54:19.415Z,12.89
2019-03-28T10:56:50.765Z,13.11
2019-03-28T10:59:08.179Z,13.12
2019-03-28T11:01:49.190Z,13.11
2019-03-28T11:04:08.302Z,13.15
2019-03-28T11:06:37.509Z,13.28
2019-03-28T11:09:08.537Z,13.26
2019-03-28T11:11:37.950Z,13.36
2019-03-28T11:14:07.084Z,13.47
2019-03-28T11:16:36.320Z,13.57
2019-03-28T11:19:05.651Z,13.62
2019-03-28T11:21:34.825Z,13.64
2019-03-28T11:24:04.038Z,13.67
2019-03-28T11:26:33.297Z,13.72
2019-03-28T11:29:02.520Z,13.95
2019-03-28T11:31:45.239Z,13.99
2019-03-28T11:34:02.586Z,14.12
2019-03-28T11:36:31.739Z,14.29
2019-03-28T11:39:02.856Z,14.39
2019-03-28T11:41:31.857Z,14.44
2019-03-28T11:44:01.013Z,14.38
2019-03-28T11:46:30.207Z,14.48
2019-03-28T11:49:00.259Z,14.49
2019-03-28T11:51:30.453Z,14.65
2019-03-28T11:53:59.995Z,14.67
2019-03-28T11:56:29.150Z,14.71
2019-03-28T11:58:58.326Z,14.60
2019-03-28T12:01:28.030Z,14.48
2019-03-28T12:03:57.392Z,14.36
2019-03-28T12:06:26.553Z,14.41
2019-03-28T12:08:56.065Z,14.60
2019-03-28T12:11:25.605Z,14.70
2019-03-28T12:13:54.786Z,14.76
2019-03-28T12:16:23.991Z,14.72
2019-03-28T12:18:53.166Z,14.81
2019-03-28T12:21:22.341Z,14.87
2019-03-28T12:23:51.500Z,14.90
2019-03-28T12:26:20.660Z,15.07
2019-03-28T12:28:49.826Z,15.19
2019-03-28T12:31:18.990Z,15.10
2019-03-28T12:33:48.166Z,15.05
2019-03-28T12:36:17.451Z,15.01
2019-03-28T12:38:46.642Z,15.06
2019-03-28T12:41:15.824Z,14.99
2019-03-28T12:43:44.995Z,14.99
2019-03-28T12:46:14.229Z,14.94
2019-03-28T12:48:43.504Z,14.88
2019-03-28T12:51:12.666Z,14.78
2019-03-28T12:53:41.843Z,14.86
2019-03-28T12:56:10.995Z,14.90
2019-03-28T12:58:40.181Z,14.93
2019-03-28T13:01:09.336Z,14.84
2019-03-28T13:03:45.464Z,15.00
2019-03-28T13:06:09.403Z,15.28
2019-03-28T13:08:38.560Z,15.37
2019-03-28T13:11:07.818Z,15.46
2019-03-28T13:13:37.061Z,15.16
2019-03-28T13:16:06.351Z,15.16
2019-03-28T13:18:36.186Z,15.24
2019-03-28T13:21:13.299Z,15.27
2019-03-28T13:23:36.406Z,15.25
2019-03-28T13:26:05.569Z,15.35
2019-03-28T13:28:34.732Z,15.41
2019-03-28T13:31:03.917Z,15.45
2019-03-28T13:33:33.046Z,15.44
2019-03-28T13:36:02.215Z,15.52
2019-03-28T13:38:31.425Z,15.41
2019-03-28T13:41:00.564Z,15.36
2019-03-28T13:43:30.602Z,15.35
2019-03-28T13:45:59.917Z,15.34
2019-03-28T13:48:29.104Z,15.17
2019-03-28T13:50:58.360Z,15.44
2019-03-28T13:53:38.690Z,15.38
2019-03-28T13:55:58.555Z,15.48
2019-03-28T13:58:27.740Z,15.51
2019-03-28T14:00:56.894Z,15.58
2019-03-28T14:03:26.083Z,15.54
2019-03-28T14:05:55.248Z,15.71
2019-03-28T14:08:24.492Z,15.70
2019-03-28T14:10:53.645Z,15.75
2019-03-28T14:13:22.957Z,15.71
2019-03-28T14:15:52.141Z,15.62
2019-03-28T14:18:21.299Z,15.60
2019-03-28T14:20:50.484Z,15.54
2019-03-28T14:23:19.889Z,15.64
2019-03-28T14:25:49.069Z,15.63
2019-03-28T14:28:18.260Z,15.71
2019-03-28T14:30:47.427Z,15.75
2019-03-28T14:33:16.612Z,15.89
2019-03-28T14:35:45.791Z,15.95
2019-03-28T14:38:14.946Z,16.09
2019-03-28T14:40:44.153Z,16.02
2019-03-28T14:43:13.314Z,15.89
2019-03-28T14:45:42.503Z,15.86
2019-03-28T14:48:11.743Z,15.81
2019-03-28T14:50:41.376Z,15.71
2019-03-28T14:53:10.576Z,15.70
2019-03-28T14:55:39.826Z,15.78
2019-03-28T14:58:09.782Z,15.76
2019-03-28T15:00:50.097Z,15.85
2019-03-28T15:03:26.231Z,15.83
2019-03-28T15:05:50.462Z,15.75
2019-03-28T15:08:20.403Z,15.70
2019-03-28T15:10:49.748Z,15.70
2019-03-28T15:13:18.986Z,15.80
2019-03-28T15:15:48.203Z,15.88
2019-03-28T15:18:17.435Z,15.81
2019-03-28T15:20:46.679Z,15.86
2019-03-28T15:23:15.959Z,15.89
2019-03-28T15:25:45.229Z,15.94
2019-03-28T15:28:14.534Z,15.93
2019-03-28T15:30:43.759Z,15.86
2019-03-28T15:33:12.922Z,15.73
2019-03-28T15:35:42.083Z,15.66
2019-03-28T15:38:11.349Z,15.72
2019-03-28T15:40:40.497Z,15.58
2019-03-28T15:43:09.676Z,15.49
2019-03-28T15:45:38.827Z,15.51
2019-03-28T15:48:08.039Z,15.60
2019-03-28T15:50:37.213Z,15.51
2019-03-28T15:53:06.448Z,15.48
2019-03-28T15:55:35.618Z,15.52
2019-03-28T15:58:04.794Z,15.46
2019-03-28T16:00:33.966Z,15.53
2019-03-28T16:03:03.159Z,15.52
2019-03-28T16:05:32.309Z,15.50
2019-03-28T16:08:01.464Z,15.47
2019-03-28T16:10:30.628Z,15.51
2019-03-28T16:12:59.813Z,15.42
2019-03-28T16:15:29.030Z,15.40
2019-03-28T16:17:58.191Z,15.38
2019-03-28T16:20:27.473Z,15.39
2019-03-28T16:22:56.701Z,15.35
2019-03-28T16:25:25.868Z,15.38
2019-03-28T16:27:55.009Z,15.38
2019-03-28T16:30:43.237Z,15.36
2019-03-28T16:33:12.469Z,15.39
2019-03-28T16:35:41.767Z,15.34
2019-03-28T16:38:10.934Z,15.32
2019-03-28T16:40:40.099Z,15.31
2019-03-28T16:43:09.344Z,15.18
2019-03-28T16:45:38.627Z,15.18
2019-03-28T16:48:07.850Z,15.20
2019-03-28T16:50:37.139Z,15.10
2019-03-28T16:53:06.373Z,15.06
2019-03-28T16:55:35.615Z,15.13
2019-03-28T16:58:04.990Z,15.13
2019-03-28T17:00:38.648Z,15.08
2019-03-28T17:03:08.364Z,15.16
2019-03-28T17:05:37.927Z,15.07
2019-03-28T17:08:07.159Z,15.12
2019-03-28T17:10:43.285Z,15.08
2019-03-28T17:13:12.530Z,15.05
2019-03-28T17:15:41.816Z,15.04
2019-03-28T17:18:11.031Z,15.00
2019-03-28T17:20:40.801Z,15.03
2019-03-28T17:23:10.218Z,14.97
2019-03-28T17:25:39.486Z,14.88
2019-03-28T17:28:08.659Z,14.75
2019-03-28T17:30:37.832Z,14.78
2019-03-28T17:33:06.992Z,14.82
2019-03-28T17:35:36.386Z,14.74
2019-03-28T17:38:05.680Z,14.73
2019-03-28T17:40:36.751Z,14.78
2019-03-28T17:43:05.835Z,14.70
2019-03-28T17:45:35.193Z,14.66
2019-03-28T17:48:04.454Z,14.62
2019-03-28T17:50:33.679Z,14.61
2019-03-28T17:53:02.932Z,14.64
2019-03-28T17:55:32.257Z,14.60
2019-03-28T17:58:01.458Z,14.68
2019-03-28T18:00:30.657Z,14.63
2019-03-28T18:03:08.947Z,14.53
2019-03-28T18:05:30.746Z,14.70
2019-03-28T18:07:59.996Z,14.59
2019-03-28T18:10:29.784Z,14.61
2019-03-28T18:12:59.467Z,14.51
2019-03-28T18:15:28.769Z,14.46
2019-03-28T18:17:57.942Z,14.51
2019-03-28T18:20:27.220Z,14.52
2019-03-28T18:22:57.406Z,14.57
2019-03-28T18:25:30.044Z,14.53
2019-03-28T18:27:57.881Z,14.37
2019-03-28T18:30:27.228Z,14.51
2019-03-28T18:32:56.471Z,14.40
2019-03-28T18:35:25.687Z,14.42
2019-03-28T18:37:54.841Z,14.36
2019-03-28T18:40:24.051Z,14.37
2019-03-28T18:42:55.755Z,14.30
2019-03-28T18:45:27.158Z,14.34
2019-03-28T18:48:02.930Z,14.32
2019-03-28T18:50:33.073Z,14.46
2019-03-28T18:53:07.361Z,14.39
2019-03-28T18:55:54.169Z,14.42
2019-03-28T18:58:30.450Z,14.30
2019-03-28T19:01:00.614Z,14.34
2019-03-28T19:03:31.984Z,14.34
2019-03-28T19:06:10.420Z,14.36
2019-03-28T19:08:41.214Z,14.40
2019-03-28T19:11:11.847Z,14.34
2019-03-28T19:13:45.146Z,14.15
2019-03-28T19:16:33.653Z,14.15
2019-03-28T19:19:03.637Z,14.17
2019-03-28T19:21:35.217Z,14.18
2019-03-28T19:24:10.740Z,14.15
2019-03-28T19:26:44.699Z,14.05
2019-03-28T19:29:18.902Z,14.15
2019-03-28T19:31:50.586Z,14.13
2019-03-28T19:34:20.189Z,14.06
2019-03-28T19:36:55.757Z,14.03
2019-03-28T19:39:30.358Z,14.13
2019-03-28T19:42:04.248Z,14.04
2019-03-28T19:44:32.558Z,14.11
2019-03-28T19:47:03.229Z,14.01
2019-03-28T19:49:34.188Z,13.96
2019-03-28T19:52:05.652Z,13.94
2019-03-28T19:54:38.750Z,14.03
2019-03-28T19:57:14.833Z,13.93
2019-03-28T19:59:47.246Z,13.88
2019-03-28T20:02:17.664Z,13.75
2019-03-28T20:04:50.806Z,13.76
2019-03-28T20:07:23.927Z,13.64
2019-03-28T20:09:57.387Z,13.67
2019-03-28T20:12:29.219Z,13.77
2019-03-28T20:15:00.317Z,13.69
2019-03-28T20:17:32.434Z,13.70
2019-03-28T20:20:02.156Z,13.60
2019-03-28T20:22:33.141Z,13.56
2019-03-28T20:25:23.867Z,13.62
2019-03-28T20:27:55.229Z,13.62
2019-03-28T20:30:27.977Z,13.60
2019-03-28T20:33:00.419Z,13.58
2019-03-28T20:35:34.302Z,13.61
2019-03-28T20:38:05.165Z,13.58
2019-03-28T20:40:39.360Z,13.59
2019-03-28T20:43:13.405Z,13.53
2019-03-28T20:45:43.827Z,13.40
2019-03-28T20:48:16.305Z,13.46
2019-03-28T20:50:46.706Z,13.39
2019-03-28T20:53:21.695Z,13.40
2019-03-28T20:55:51.882Z,13.29
2019-03-28T20:58:25.435Z,13.08
2019-03-28T21:00:55.882Z,13.11
2019-03-28T21:03:27.259Z,13.09
2019-03-28T21:06:14.630Z,13.04
2019-03-28T21:08:34.230Z,13.01
2019-03-28T21:11:08.695Z,12.96
2019-03-28T21:13:39.200Z,12.93
2019-03-28T21:16:15.567Z,12.85
2019-03-28T21:18:45.884Z,12.81
2019-03-28T21:21:17.143Z,12.84
2019-03-28T21:23:47.316Z,12.78
2019-03-28T21:26:17.142Z,12.80
2019-03-28T21:28:47.720Z,12.79
2019-03-28T21:31:17.625Z,12.77
2019-03-28T21:33:48.680Z,12.69
2019-03-28T21:36:29.604Z,12.68
2019-03-28T21:38:52.799Z,12.62
2019-03-28T21:41:22.317Z,12.66
2019-03-28T21:43:51.925Z,12.58
2019-03-28T21:46:23.751Z,12.60
2019-03-28T21:48:53.822Z,12.44
2019-03-28T21:51:27.099Z,12.39
2019-03-28T21:53:56.969Z,12.31
2019-03-28T21:56:28.726Z,12.32
2019-03-28T21:59:00.176Z,12.25
2019-03-28T22:01:32.844Z,12.20
2019-03-28T22:04:08.920Z,12.18
2019-03-28T22:06:43.157Z,12.21
2019-03-28T22:09:12.673Z,12.19
2019-03-28T22:11:47.414Z,12.09
2019-03-28T22:14:19.754Z,12.12
2019-03-28T22:16:56.392Z,12.01
2019-03-28T22:19:30.361Z,11.95
2019-03-28T22:22:02.341Z,11.95
2019-03-28T22:24:35.236Z,11.90
2019-03-28T22:27:07.552Z,11.68
2019-03-28T22:29:38.967Z,11.68
2019-03-28T22:32:11.821Z,11.63
2019-03-28T22:34:47.236Z,11.68
2019-03-28T22:37:23.368Z,11.59
2019-03-28T22:39:55.196Z,11.62
2019-03-28T22:42:26.725Z,11.52
2019-03-28T22:45:11.263Z,11.61
2019-03-28T22:47:48.527Z,11.54
2019-03-28T22:50:24.329Z,11.45
2019-03-28T22:53:04.825Z,11.37
2019-03-28T22:55:35.808Z,11.47
2019-03-28T22:58:12.833Z,11.33
2019-03-28T23:00:48.892Z,11.37
2019-03-28T23:03:23.139Z,11.27
2019-03-28T23:06:15.537Z,11.17
2019-03-28T23:08:44.877Z,11.13
2019-03-28T23:14:26.804Z,11.26
2019-03-28T23:17:22.435Z,11.08
2019-03-28T23:19:54.243Z,10.97
2019-03-28T23:22:26.656Z,11.06
2019-03-28T23:24:56.828Z,11.01
2019-03-28T23:27:36.860Z,10.95
2019-03-28T23:30:10.197Z,10.95
2019-03-28T23:32:48.765Z,10.89
2019-03-28T23:35:34.126Z,10.90
2019-03-28T23:38:06.254Z,10.79
2019-03-28T23:50:30.273Z,10.74
2019-03-28T23:53:51.864Z,10.74
2019-03-28T23:56:23.122Z,10.70
2019-03-28T23:58:56.218Z,10.58
